Terminal Aerodrome Forecast
Issued by NWS

Home | Current Version | Previous Version | Text Only | Print | Product List | Glossary On
Versions: 1 2 3 4 5 6 7 8 9 10 11 12 13 14 15 16 17 18 19 20 21 22
109
FTPA31 PHFO 271735
TAFHNY
TAF
PHNY 271735Z 2718/2818 08008KT P6SM FEW025
     FM272000 05014G22KT P6SM FEW025 SCT040
     FM280800 05011KT P6SM FEW040=

USA.gov is the U.S. government's official web portal to all federal, state and local government web resources and services.